Orlando, FL

11:59 PM EDT on May 26, 2017 (GMT -0400)
WFTV, Channel 9 | | Change Station
Active Advisory: Fire Weather Watch

Elev 92 ft 28.54 °N, 81.37 °W | Updated 9 seconds ago

Clear
Clear
72.0 °F
Feels Like 75 °F
N
2.6
Wind Variable Wind from SSW
Gusts 3.0 mph

Today
High -- | Low -- °F
--% Chance of Precip.
Yesterday
High -- | Low -- °F
Precip. -- in
Pressure 30.08 in
Visibility 10.0 miles
Clouds Clear
Heat Index 75 °F
Dew Point 60 °F
Humidity 66%
Rainfall 0.00 in
Snow Depth Not available.
6:29 AM 8:15 PM
Waxing Crescent, 3% visible
METAR KORL 270353Z AUTO 22003KT 10SM CLR 22/17 A3007 RMK AO2 SLP186 T02220167
Pressure 30.08 in
Visibility 10.0 miles
Clouds Clear
Heat Index 75 °F
Dew Point 60 °F
Humidity 66%
Rainfall 0.00 in
Snow Depth Not available.
6:29 AM 8:15 PM
Waxing Crescent, 3% visible
METAR KORL 270353Z AUTO 22003KT 10SM CLR 22/17 A3007 RMK AO2 SLP186 T02220167

Get Your Daily Forecast Email!

Thanks for signing up!

Be on the lookout for a verification email in your inbox.

You'll start receiving severe weather alerts in your inbox..

×

10-Day Weather Forecast

Almanac

Astronomy

May. 26, 2017 Rise Set
Actual Time
Civil Twilight
Nautical Twilight
Astronomical Twilight
Moon
Length of Visible Light
Length of Day
Tomorrow will be .
, % of the Moon is Illuminated

Today's Extremes

State Highs State Lows

Community

WunderPhotos

Category 6

Welcome to Category 6. This is the collective home for Weather Underground's featured writeups by Dr. Jeff Masters (right), Bob Henson (left), Chris Burt, and other regular contributors.

Nearby

Air Quality

  Air Quality AQ Index Pollutant
Not available.

Snow Depth

Station Depth Elevation

Earthquake Activity

City Distance Mag. Time & Date
Minimum magnitude displayed is 2.5.

Coastal Water Temperatures

Place Temperature

Stations

Nearby Weather Stations

Station Location Temp. Windchill Dew Point Humidity Wind Precip. Elev Updated Type
                   

Watches & Warnings

Fire Weather Watch
Issued: 4:36 AM EDT May. 26, 2017 – National Weather Service

... Fire Weather Watch in effect from Saturday afternoon through
Saturday evening for long duration of low rh for
Lake... Seminole... Orange and Osceola counties...

The National Weather Service in Melbourne has issued a Fire
Weather Watch, which is in effect from Saturday afternoon through
Saturday evening.

* Affected area... Northern Lake County... Osceola... Southern
Lake County.

* Wind... west to southwest winds 5 to 10 mph.

* Humidity... min rhs between 25 and 30 percent.

* Impacts... any fires that develop will likely spread rapidly.
Outdoor burning is not recommended.

Precautionary/preparedness actions...

A Fire Weather Watch means that critical fire weather conditions
are forecast to occur. Listen for later forecasts and possible
red flag warnings.



15